Time;durP1;ratioP1;P1;durP2;ratioP2;P2;SDS_P1;SDS_P2;PMS_P1;PMS_P2;Temp;Humidity;BMP_temperature;BMP_pressure;BME280_temperature;BME280_humidity;BME280_pressure;Samples;Min_cycle;Max_cycle;Signal;HPM_P1;HPM_P2
2023/03/18 00:01:16;;;;;;;2.40;2.20;;;;;;;;;;5120570;28;20457;-61
2023/03/18 00:03:45;;;;;;;2.50;2.30;;;;;;;;;;5119431;28;20526;-61
2023/03/18 00:06:14;;;;;;;2.42;2.22;;;;;;;;;;5119768;28;20605;-61
2023/03/18 00:08:46;;;;;;;2.70;2.50;;;;;;;;;;5118885;28;20227;-61
2023/03/18 00:11:14;;;;;;;3.25;2.83;;;;;;;;;;5119533;28;20199;-62
2023/03/18 00:13:42;;;;;;;2.33;2.08;;;;;;;;;;5119795;28;20210;-62
2023/03/18 00:16:11;;;;;;;2.50;2.28;;;;;;;;;;5119735;28;20210;-62
2023/03/18 00:18:39;;;;;;;2.47;2.20;;;;;;;;;;5118549;28;20296;-62
2023/03/18 00:21:08;;;;;;;2.40;2.30;;;;;;;;;;5120005;28;20220;-62
2023/03/18 00:23:37;;;;;;;2.50;2.30;;;;;;;;;;5118865;28;20199;-62
2023/03/18 00:26:07;;;;;;;2.70;2.50;;;;;;;;;;5119282;28;20211;-61
2023/03/18 00:28:35;;;;;;;2.88;2.50;;;;;;;;;;5119352;28;20334;-61
2023/03/18 00:31:07;;;;;;;2.40;2.20;;;;;;;;;;5118597;28;20206;-61
2023/03/18 00:33:35;;;;;;;2.55;2.35;;;;;;;;;;5119300;28;20456;-61
2023/03/18 00:36:03;;;;;;;2.55;2.35;;;;;;;;;;5119340;28;20656;-61
2023/03/18 00:38:32;;;;;;;2.50;2.30;;;;;;;;;;5119772;28;20199;-61
2023/03/18 00:41:10;;;;;;;2.20;2.00;;;;;;;;;;5118152;28;20210;-61
2023/03/18 00:43:44;;;;;;;2.30;2.10;;;;;;;;;;5119593;28;20213;-61
2023/03/18 00:46:13;;;;;;;2.60;2.40;;;;;;;;;;5119471;28;20203;-61
2023/03/18 00:48:40;;;;;;;2.50;2.30;;;;;;;;;;5119216;28;20637;-61
2023/03/18 00:51:12;;;;;;;2.30;2.10;;;;;;;;;;5117745;28;20602;-61
2023/03/18 00:53:41;;;;;;;2.55;2.35;;;;;;;;;;5119218;28;20538;-61
2023/03/18 00:56:10;;;;;;;2.83;2.63;;;;;;;;;;5118005;28;20256;-61
2023/03/18 00:58:37;;;;;;;2.40;2.20;;;;;;;;;;5119169;28;20571;-61
2023/03/18 01:01:05;;;;;;;2.40;2.20;;;;;;;;;;5118322;28;20199;-61
2023/03/18 01:03:33;;;;;;;2.63;2.42;;;;;;;;;;5118980;28;20203;-61
2023/03/18 01:06:02;;;;;;;2.50;2.30;;;;;;;;;;5119108;28;20214;-61
2023/03/18 01:08:31;;;;;;;2.75;2.55;;;;;;;;;;5119160;28;20536;-61
2023/03/18 01:11:00;;;;;;;2.58;2.28;;;;;;;;;;5118423;28;20203;-61
2023/03/18 01:13:27;;;;;;;2.45;2.25;;;;;;;;;;5118276;28;20211;-61
2023/03/18 01:15:55;;;;;;;2.63;2.42;;;;;;;;;;5117997;28;20231;-61
2023/03/18 01:18:24;;;;;;;2.40;2.20;;;;;;;;;;5117933;28;20517;-61
2023/03/18 01:20:52;;;;;;;2.47;2.28;;;;;;;;;;5119127;28;20306;-61
2023/03/18 01:23:19;;;;;;;2.58;2.38;;;;;;;;;;5118363;28;20195;-61
2023/03/18 01:25:47;;;;;;;2.55;2.35;;;;;;;;;;5117833;28;20225;-61
2023/03/18 01:28:17;;;;;;;2.30;2.10;;;;;;;;;;5118745;28;20614;-61
2023/03/18 01:30:45;;;;;;;2.50;2.30;;;;;;;;;;5117761;28;20202;-61
2023/03/18 01:33:12;;;;;;;2.65;2.45;;;;;;;;;;5118440;28;20556;-61
2023/03/18 01:35:41;;;;;;;2.20;2.00;;;;;;;;;;5118613;28;20464;-61
2023/03/18 01:38:09;;;;;;;2.20;2.00;;;;;;;;;;5117388;28;20206;-61
2023/03/18 01:40:39;;;;;;;2.40;2.20;;;;;;;;;;5118506;28;20195;-61
2023/03/18 01:43:14;;;;;;;2.60;2.40;;;;;;;;;;5118495;28;20214;-61
2023/03/18 01:45:48;;;;;;;2.40;2.20;;;;;;;;;;5118770;28;20210;-61
2023/03/18 01:48:17;;;;;;;2.40;2.20;;;;;;;;;;5116877;28;20292;-61
2023/03/18 01:50:46;;;;;;;2.50;2.30;;;;;;;;;;5118103;28;20209;-61
2023/03/18 01:53:15;;;;;;;2.20;2.00;;;;;;;;;;5118337;28;20203;-61
2023/03/18 01:55:44;;;;;;;2.03;1.92;;;;;;;;;;5117711;28;20297;-61
2023/03/18 01:58:14;;;;;;;2.30;2.10;;;;;;;;;;5117403;28;20225;-61
2023/03/18 02:00:44;;;;;;;2.33;2.13;;;;;;;;;;5118004;28;20198;-61
2023/03/18 02:03:14;;;;;;;2.50;2.30;;;;;;;;;;5117800;28;20202;-61
2023/03/18 02:05:43;;;;;;;2.15;2.03;;;;;;;;;;5117356;28;20210;-61
2023/03/18 02:08:11;;;;;;;2.40;2.20;;;;;;;;;;5117831;28;20598;-61
2023/03/18 02:10:39;;;;;;;2.50;2.28;;;;;;;;;;5117428;28;20289;-61
2023/03/18 02:13:08;;;;;;;2.33;2.13;;;;;;;;;;5117962;28;20246;-61
2023/03/18 02:15:37;;;;;;;2.40;2.20;;;;;;;;;;5117925;28;20203;-61
2023/03/18 02:18:11;;;;;;;2.35;2.15;;;;;;;;;;5114775;28;20234;-61
2023/03/18 02:20:45;;;;;;;2.22;2.03;;;;;;;;;;5105895;28;20574;-61
2023/03/18 02:23:16;;;;;;;2.20;2.00;;;;;;;;;;5118026;28;20570;-61
2023/03/18 02:25:48;;;;;;;2.15;2.03;;;;;;;;;;5116919;28;20858;-61
2023/03/18 02:28:20;;;;;;;2.10;1.90;;;;;;;;;;5118182;28;20223;-61
2023/03/18 02:30:48;;;;;;;2.00;1.90;;;;;;;;;;5124155;28;20206;-61
2023/03/18 02:33:17;;;;;;;2.30;2.10;;;;;;;;;;5124370;28;20245;-61
2023/03/18 02:35:46;;;;;;;2.30;2.10;;;;;;;;;;5124648;28;20236;-61
2023/03/18 02:38:14;;;;;;;1.80;1.70;;;;;;;;;;5123682;28;20198;-61
2023/03/18 02:40:42;;;;;;;1.92;1.83;;;;;;;;;;5124858;28;20674;-61
2023/03/18 02:43:26;;;;;;;2.30;2.10;;;;;;;;;;5124623;28;20586;-61
2023/03/18 02:46:02;;;;;;;2.15;1.95;;;;;;;;;;5124293;28;20244;-61
2023/03/18 02:48:31;;;;;;;2.28;2.08;;;;;;;;;;5123603;28;20237;-61
2023/03/18 02:51:00;;;;;;;2.20;2.00;;;;;;;;;;5123988;28;20916;-61
2023/03/18 02:53:28;;;;;;;2.15;1.95;;;;;;;;;;5123643;28;20231;-61
2023/03/18 02:55:56;;;;;;;2.10;2.00;;;;;;;;;;5124151;28;20498;-61
2023/03/18 02:58:25;;;;;;;2.30;2.10;;;;;;;;;;5124005;28;20209;-61
2023/03/18 03:00:53;;;;;;;2.10;1.90;;;;;;;;;;5124538;28;20203;-61
2023/03/18 03:03:21;;;;;;;2.50;2.22;;;;;;;;;;5124235;28;20233;-61
2023/03/18 03:05:49;;;;;;;2.00;1.90;;;;;;;;;;5124001;28;20210;-61
2023/03/18 03:08:16;;;;;;;2.00;1.90;;;;;;;;;;5123683;28;20249;-61
2023/03/18 03:10:45;;;;;;;2.05;1.85;;;;;;;;;;5122978;28;20547;-61
2023/03/18 03:13:13;;;;;;;2.25;2.05;;;;;;;;;;5118818;28;20236;-61
2023/03/18 03:15:42;;;;;;;1.92;1.83;;;;;;;;;;5112882;28;20246;-61
2023/03/18 03:18:10;;;;;;;2.33;2.00;;;;;;;;;;5122686;28;20347;-62
2023/03/18 03:20:38;;;;;;;2.13;1.92;;;;;;;;;;5123832;28;20495;-62
2023/03/18 03:23:06;;;;;;;2.22;2.03;;;;;;;;;;5122971;28;20213;-62
2023/03/18 03:25:34;;;;;;;2.13;1.92;;;;;;;;;;5123387;28;20202;-62
2023/03/18 03:28:02;;;;;;;2.20;2.00;;;;;;;;;;5123070;28;20202;-62
2023/03/18 03:30:30;;;;;;;2.10;2.00;;;;;;;;;;5123572;28;20260;-62
2023/03/18 03:33:00;;;;;;;1.88;1.77;;;;;;;;;;5123855;28;20202;-62
2023/03/18 03:35:28;;;;;;;1.92;1.80;;;;;;;;;;5123195;28;20213;-62
2023/03/18 03:37:56;;;;;;;2.15;1.95;;;;;;;;;;5122831;28;20199;-62
2023/03/18 03:40:24;;;;;;;2.30;2.10;;;;;;;;;;5121783;28;20257;-62
2023/03/18 03:42:52;;;;;;;2.35;2.00;;;;;;;;;;5120610;28;20211;-62
2023/03/18 03:45:20;;;;;;;1.90;1.80;;;;;;;;;;5120642;28;20481;-62
2023/03/18 03:47:48;;;;;;;2.78;2.10;;;;;;;;;;5120437;28;20213;-62
2023/03/18 03:50:18;;;;;;;1.85;1.75;;;;;;;;;;5120825;28;20226;-62
2023/03/18 03:52:45;;;;;;;2.10;1.90;;;;;;;;;;5120498;28;20210;-61
2023/03/18 03:55:16;;;;;;;1.98;1.88;;;;;;;;;;5120545;28;20529;-61
2023/03/18 03:57:44;;;;;;;1.95;1.85;;;;;;;;;;5120595;28;20298;-61
2023/03/18 04:00:13;;;;;;;2.00;1.90;;;;;;;;;;5120750;28;20493;-61
2023/03/18 04:02:40;;;;;;;1.95;1.85;;;;;;;;;;5120451;28;20211;-61
2023/03/18 04:05:09;;;;;;;1.92;1.70;;;;;;;;;;5120726;28;20305;-61
2023/03/18 04:07:38;;;;;;;1.90;1.80;;;;;;;;;;5120493;28;20494;-61
2023/03/18 04:10:08;;;;;;;2.30;2.10;;;;;;;;;;5119796;28;20230;-61
2023/03/18 04:12:36;;;;;;;1.98;1.88;;;;;;;;;;5119924;28;20203;-61
2023/03/18 04:15:04;;;;;;;2.00;1.90;;;;;;;;;;5119790;28;20203;-61
2023/03/18 04:17:31;;;;;;;2.13;1.92;;;;;;;;;;5119495;28;20329;-61
2023/03/18 04:19:59;;;;;;;2.03;1.92;;;;;;;;;;5119920;28;20207;-61
2023/03/18 04:22:28;;;;;;;2.03;1.90;;;;;;;;;;5119801;28;20203;-61
2023/03/18 04:24:57;;;;;;;2.42;2.22;;;;;;;;;;5119645;28;20211;-61
2023/03/18 04:27:25;;;;;;;2.17;1.98;;;;;;;;;;5119988;28;20210;-61
2023/03/18 04:29:53;;;;;;;2.15;1.95;;;;;;;;;;5119785;28;20226;-61
2023/03/18 04:32:21;;;;;;;2.03;1.85;;;;;;;;;;5119913;28;20618;-61
2023/03/18 04:34:49;;;;;;;2.20;2.00;;;;;;;;;;5119705;28;20464;-61
2023/03/18 04:37:18;;;;;;;2.08;1.92;;;;;;;;;;5119681;28;20211;-61
2023/03/18 04:39:46;;;;;;;2.20;2.00;;;;;;;;;;5119567;28;20199;-61
2023/03/18 04:42:16;;;;;;;2.13;1.92;;;;;;;;;;5119616;28;20202;-61
2023/03/18 04:44:44;;;;;;;2.15;1.95;;;;;;;;;;5119483;28;20203;-61
2023/03/18 04:47:12;;;;;;;2.10;1.90;;;;;;;;;;5119857;28;20207;-61
2023/03/18 04:49:40;;;;;;;2.30;2.10;;;;;;;;;;5119214;28;20614;-61
2023/03/18 04:52:08;;;;;;;2.33;2.13;;;;;;;;;;5118266;28;20203;-61
2023/03/18 04:54:37;;;;;;;2.00;1.90;;;;;;;;;;5119314;28;20207;-61
2023/03/18 04:57:06;;;;;;;1.90;1.80;;;;;;;;;;5118805;28;20203;-61
2023/03/18 04:59:36;;;;;;;2.13;1.80;;;;;;;;;;5119430;28;20207;-61
2023/03/18 05:02:03;;;;;;;2.15;1.95;;;;;;;;;;5118990;28;20236;-61
2023/03/18 05:04:31;;;;;;;2.03;1.92;;;;;;;;;;5118994;28;20310;-61
2023/03/18 05:06:58;;;;;;;1.90;1.80;;;;;;;;;;5119246;28;20210;-61
2023/03/18 05:09:26;;;;;;;2.17;1.98;;;;;;;;;;5119075;28;20258;-61
2023/03/18 05:11:54;;;;;;;1.95;1.85;;;;;;;;;;5119172;28;20252;-61
2023/03/18 05:14:21;;;;;;;2.28;2.08;;;;;;;;;;5118822;28;20313;-61
2023/03/18 05:16:50;;;;;;;1.80;1.70;;;;;;;;;;5118546;28;20230;-61
2023/03/18 05:19:18;;;;;;;2.03;1.90;;;;;;;;;;5118686;28;20199;-61
2023/03/18 05:21:46;;;;;;;2.33;2.13;;;;;;;;;;5118980;28;20213;-61
2023/03/18 05:24:13;;;;;;;2.10;1.83;;;;;;;;;;5117749;28;20285;-61
2023/03/18 05:26:41;;;;;;;2.03;1.88;;;;;;;;;;5118591;28;20293;-61
2023/03/18 05:29:08;;;;;;;1.95;1.85;;;;;;;;;;5118089;28;20233;-61
2023/03/18 05:31:36;;;;;;;2.00;1.90;;;;;;;;;;5118136;28;20289;-61
2023/03/18 05:34:06;;;;;;;2.20;2.00;;;;;;;;;;5117896;28;20545;-61
2023/03/18 05:36:33;;;;;;;2.35;2.15;;;;;;;;;;5118279;28;20295;-61
2023/03/18 05:39:00;;;;;;;2.22;2.03;;;;;;;;;;5118247;28;20210;-61
2023/03/18 05:41:28;;;;;;;1.90;1.73;;;;;;;;;;5118364;28;20230;-61
2023/03/18 05:43:56;;;;;;;1.83;1.65;;;;;;;;;;5117673;28;20497;-61
2023/03/18 05:46:23;;;;;;;2.10;2.00;;;;;;;;;;5117795;28;20203;-61
2023/03/18 05:48:51;;;;;;;2.10;1.90;;;;;;;;;;5117705;28;20607;-61
2023/03/18 05:51:20;;;;;;;1.98;1.85;;;;;;;;;;5117016;28;20317;-61
2023/03/18 05:53:48;;;;;;;1.88;1.77;;;;;;;;;;5117660;28;20587;-61
2023/03/18 05:56:16;;;;;;;2.05;1.95;;;;;;;;;;5117914;28;20214;-61
2023/03/18 05:58:44;;;;;;;2.08;1.98;;;;;;;;;;5118152;28;20319;-61
2023/03/18 06:01:12;;;;;;;1.90;1.80;;;;;;;;;;5117876;28;20203;-61
2023/03/18 06:03:40;;;;;;;1.92;1.77;;;;;;;;;;5117686;28;20293;-61
2023/03/18 06:06:08;;;;;;;2.20;2.00;;;;;;;;;;5117220;28;20203;-61
2023/03/18 06:08:37;;;;;;;1.80;1.70;;;;;;;;;;5117904;28;20203;-61
2023/03/18 06:11:05;;;;;;;2.33;2.13;;;;;;;;;;5118181;28;20202;-61
2023/03/18 06:13:32;;;;;;;1.92;1.80;;;;;;;;;;5117779;28;20563;-61
2023/03/18 06:16:00;;;;;;;2.30;2.10;;;;;;;;;;5117561;28;20229;-61
2023/03/18 06:18:28;;;;;;;2.50;1.90;;;;;;;;;;5117381;28;20230;-62
2023/03/18 06:20:56;;;;;;;2.10;1.90;;;;;;;;;;5117697;28;20202;-62
2023/03/18 06:23:23;;;;;;;2.15;1.95;;;;;;;;;;5116996;28;20282;-62
2023/03/18 06:25:52;;;;;;;2.20;1.85;;;;;;;;;;5117414;28;20570;-61
2023/03/18 06:28:20;;;;;;;2.20;2.00;;;;;;;;;;5117215;28;20210;-61
2023/03/18 06:30:47;;;;;;;2.08;1.88;;;;;;;;;;5116350;28;20258;-61
2023/03/18 06:33:15;;;;;;;2.05;1.85;;;;;;;;;;5117537;28;20298;-61
2023/03/18 06:35:42;;;;;;;2.00;1.90;;;;;;;;;;5117669;28;20586;-61
2023/03/18 06:38:13;;;;;;;1.90;1.80;;;;;;;;;;5117732;28;20236;-61
2023/03/18 06:40:40;;;;;;;2.30;2.10;;;;;;;;;;5117674;28;20226;-61
2023/03/18 06:43:09;;;;;;;2.00;1.90;;;;;;;;;;5117335;28;20203;-61
2023/03/18 06:45:37;;;;;;;2.13;1.95;;;;;;;;;;5117009;28;20586;-61
2023/03/18 06:48:05;;;;;;;1.92;1.75;;;;;;;;;;5117675;28;20234;-61
2023/03/18 06:50:32;;;;;;;2.15;1.95;;;;;;;;;;5117469;28;20226;-61
2023/03/18 06:53:00;;;;;;;1.85;1.75;;;;;;;;;;5117013;28;20254;-61
2023/03/18 06:55:28;;;;;;;2.20;2.00;;;;;;;;;;5117169;28;20203;-61
2023/03/18 06:57:56;;;;;;;1.95;1.75;;;;;;;;;;5116702;28;20203;-62
2023/03/18 07:00:25;;;;;;;1.98;1.77;;;;;;;;;;5117207;28;20243;-62
2023/03/18 07:02:53;;;;;;;2.38;2.17;;;;;;;;;;5117160;28;20227;-62
2023/03/18 07:05:20;;;;;;;2.35;2.15;;;;;;;;;;5116315;28;20351;-62
2023/03/18 07:07:49;;;;;;;2.00;1.90;;;;;;;;;;5116849;28;20243;-62
2023/03/18 07:10:19;;;;;;;2.30;2.08;;;;;;;;;;5116576;28;20695;-62
2023/03/18 07:12:47;;;;;;;2.20;2.00;;;;;;;;;;5116448;28;20231;-62
2023/03/18 07:15:15;;;;;;;2.17;1.98;;;;;;;;;;5117614;28;20606;-62
2023/03/18 07:17:44;;;;;;;2.92;2.17;;;;;;;;;;5120532;28;20308;-62
2023/03/18 07:20:12;;;;;;;3.13;2.10;;;;;;;;;;5121014;28;20202;-62
2023/03/18 07:22:39;;;;;;;2.20;2.00;;;;;;;;;;5120788;28;20286;-62
2023/03/18 07:25:07;;;;;;;3.40;2.15;;;;;;;;;;5120688;28;20295;-62
2023/03/18 07:27:35;;;;;;;2.33;2.13;;;;;;;;;;5120974;28;20279;-61
2023/03/18 07:30:02;;;;;;;2.63;2.00;;;;;;;;;;5120373;28;20262;-61
2023/03/18 07:32:30;;;;;;;2.30;2.05;;;;;;;;;;5120586;28;20203;-61
2023/03/18 07:34:59;;;;;;;2.60;2.40;;;;;;;;;;5120308;28;20268;-61
2023/03/18 07:37:26;;;;;;;3.75;2.20;;;;;;;;;;5120612;28;20245;-61
2023/03/18 07:39:54;;;;;;;2.33;2.10;;;;;;;;;;5120468;28;20234;-61
2023/03/18 07:42:21;;;;;;;2.22;2.03;;;;;;;;;;5119891;28;20297;-61
2023/03/18 07:44:49;;;;;;;2.13;1.95;;;;;;;;;;5120575;28;20529;-61
2023/03/18 07:47:17;;;;;;;2.13;1.92;;;;;;;;;;5119551;28;20298;-61
2023/03/18 07:49:44;;;;;;;2.42;2.20;;;;;;;;;;5119627;28;20231;-61
2023/03/18 07:52:13;;;;;;;2.08;1.90;;;;;;;;;;5119931;28;20203;-61
2023/03/18 07:54:41;;;;;;;2.40;2.20;;;;;;;;;;5119039;28;20606;-61
2023/03/18 07:57:09;;;;;;;2.28;2.08;;;;;;;;;;5119276;28;20206;-61
2023/03/18 07:59:36;;;;;;;2.40;2.15;;;;;;;;;;5119320;28;20230;-61
2023/03/18 08:02:06;;;;;;;2.53;2.30;;;;;;;;;;5119489;28;20211;-62
2023/03/18 08:04:34;;;;;;;2.40;2.20;;;;;;;;;;5119134;28;20621;-62
2023/03/18 08:07:02;;;;;;;2.40;2.17;;;;;;;;;;5119601;28;20207;-62
2023/03/18 08:09:31;;;;;;;3.00;2.20;;;;;;;;;;5119039;28;20203;-62
2023/03/18 08:11:59;;;;;;;2.30;2.10;;;;;;;;;;5119399;28;20253;-62
2023/03/18 08:14:26;;;;;;;2.67;2.28;;;;;;;;;;5118854;28;20203;-62
2023/03/18 08:16:54;;;;;;;2.38;2.17;;;;;;;;;;5119271;28;20355;-62
2023/03/18 08:19:21;;;;;;;3.47;2.38;;;;;;;;;;5118931;28;20242;-62
2023/03/18 08:21:49;;;;;;;2.50;2.08;;;;;;;;;;5118785;28;20195;-62
2023/03/18 08:24:17;;;;;;;2.42;2.20;;;;;;;;;;5118483;28;20240;-62
2023/03/18 08:26:46;;;;;;;2.95;2.25;;;;;;;;;;5117607;28;20585;-62
2023/03/18 08:29:13;;;;;;;2.67;2.28;;;;;;;;;;5117682;28;20591;-62
2023/03/18 08:31:41;;;;;;;3.67;2.20;;;;;;;;;;5118457;28;20262;-62
2023/03/18 08:34:09;;;;;;;3.55;2.08;;;;;;;;;;5118561;28;20206;-62
2023/03/18 08:36:37;;;;;;;2.22;2.03;;;;;;;;;;5118812;28;20203;-62
2023/03/18 08:39:04;;;;;;;2.65;2.17;;;;;;;;;;5118493;28;20267;-62
2023/03/18 08:41:32;;;;;;;2.50;2.30;;;;;;;;;;5118286;28;20270;-62
2023/03/18 08:44:01;;;;;;;2.47;2.28;;;;;;;;;;5117685;28;20202;-62
2023/03/18 08:46:29;;;;;;;2.40;2.20;;;;;;;;;;5118628;28;20199;-62
2023/03/18 08:48:58;;;;;;;2.25;2.05;;;;;;;;;;5117875;28;20209;-62
2023/03/18 08:51:26;;;;;;;2.20;2.00;;;;;;;;;;5117931;28;20237;-62
2023/03/18 08:53:54;;;;;;;2.95;1.95;;;;;;;;;;5117848;28;20294;-62
2023/03/18 08:56:21;;;;;;;2.10;1.90;;;;;;;;;;5117494;28;20265;-62
2023/03/18 08:58:49;;;;;;;2.20;2.00;;;;;;;;;;5118439;28;20571;-62
2023/03/18 09:01:20;;;;;;;2.13;1.92;;;;;;;;;;5118055;28;20237;-62
2023/03/18 09:03:48;;;;;;;3.00;2.00;;;;;;;;;;5118492;28;20203;-62
2023/03/18 09:06:15;;;;;;;2.22;2.00;;;;;;;;;;5117542;28;20214;-62
2023/03/18 09:08:43;;;;;;;2.05;1.88;;;;;;;;;;5117295;28;20203;-62
2023/03/18 09:11:12;;;;;;;2.67;2.20;;;;;;;;;;5117095;28;20234;-62
2023/03/18 09:13:40;;;;;;;2.00;1.90;;;;;;;;;;5117719;28;20242;-62
2023/03/18 09:16:07;;;;;;;2.80;2.03;;;;;;;;;;5117759;28;20239;-62
2023/03/18 09:18:36;;;;;;;2.28;2.08;;;;;;;;;;5117587;28;20607;-62
2023/03/18 09:21:04;;;;;;;2.65;2.10;;;;;;;;;;5117518;28;20231;-62
2023/03/18 09:23:33;;;;;;;2.70;2.20;;;;;;;;;;5117155;28;20287;-62
2023/03/18 09:26:01;;;;;;;2.78;2.20;;;;;;;;;;5117122;28;20203;-62
2023/03/18 09:28:28;;;;;;;2.90;1.67;;;;;;;;;;5117189;28;20212;-62
2023/03/18 09:30:56;;;;;;;2.72;2.13;;;;;;;;;;5117328;28;20227;-62
2023/03/18 09:33:25;;;;;;;4.30;2.10;;;;;;;;;;5117019;28;20231;-62
2023/03/18 09:35:54;;;;;;;1.98;1.88;;;;;;;;;;5116518;28;20207;-62
2023/03/18 09:38:22;;;;;;;2.70;2.03;;;;;;;;;;5116368;28;20209;-62
2023/03/18 09:40:55;;;;;;;2.40;2.20;;;;;;;;;;5116418;28;20198;-62
2023/03/18 09:43:51;;;;;;;2.55;2.08;;;;;;;;;;5116480;28;20242;-62
2023/03/18 09:46:24;;;;;;;2.80;2.10;;;;;;;;;;5116642;28;20586;-62
2023/03/18 09:49:02;;;;;;;2.30;2.00;;;;;;;;;;5116369;28;20207;-62
2023/03/18 09:51:37;;;;;;;2.33;1.80;;;;;;;;;;5116209;28;20721;-62
2023/03/18 09:54:07;;;;;;;2.35;1.92;;;;;;;;;;5116737;28;20268;-62
2023/03/18 09:56:36;;;;;;;3.22;2.00;;;;;;;;;;5116862;28;20256;-62
2023/03/18 09:59:06;;;;;;;2.10;1.90;;;;;;;;;;5116194;28;20644;-62
2023/03/18 10:01:36;;;;;;;1.90;1.70;;;;;;;;;;5116051;28;20191;-62
2023/03/18 10:04:06;;;;;;;2.20;2.00;;;;;;;;;;5116115;28;20203;-62
2023/03/18 10:06:41;;;;;;;2.17;2.00;;;;;;;;;;5116309;28;20289;-62
2023/03/18 10:09:14;;;;;;;2.10;1.90;;;;;;;;;;5117029;28;20198;-62
2023/03/18 10:11:43;;;;;;;1.92;1.80;;;;;;;;;;5116963;28;20222;-62
2023/03/18 10:14:29;;;;;;;2.38;1.80;;;;;;;;;;5116541;28;20294;-62
2023/03/18 10:17:03;;;;;;;2.70;1.90;;;;;;;;;;5115997;28;20237;-62
2023/03/18 10:19:31;;;;;;;2.28;2.08;;;;;;;;;;5116435;28;20202;-62
2023/03/18 10:22:08;;;;;;;3.22;2.00;;;;;;;;;;5115865;28;20774;-62
2023/03/18 10:24:39;;;;;;;2.85;1.95;;;;;;;;;;5115924;28;20203;-62
2023/03/18 10:27:11;;;;;;;2.10;1.90;;;;;;;;;;5116166;28;20271;-62
2023/03/18 10:29:41;;;;;;;2.08;1.88;;;;;;;;;;5116206;28;20312;-62
2023/03/18 10:32:11;;;;;;;2.30;2.10;;;;;;;;;;5116089;28;20625;-62
2023/03/18 10:34:41;;;;;;;2.15;1.70;;;;;;;;;;5116113;28;20211;-62
2023/03/18 10:37:16;;;;;;;2.20;2.00;;;;;;;;;;5116467;28;20286;-62
2023/03/18 10:39:45;;;;;;;2.28;1.92;;;;;;;;;;5116560;28;20343;-62
2023/03/18 10:42:19;;;;;;;3.05;1.85;;;;;;;;;;5110774;28;20238;-62
2023/03/18 10:44:47;;;;;;;2.05;1.90;;;;;;;;;;5106188;28;20193;-62
2023/03/18 10:47:18;;;;;;;2.30;2.10;;;;;;;;;;5115735;28;20535;-62
2023/03/18 10:49:49;;;;;;;2.33;2.13;;;;;;;;;;5116782;28;20205;-62
2023/03/18 10:52:20;;;;;;;2.60;2.00;;;;;;;;;;5119676;28;20321;-62
2023/03/18 10:54:51;;;;;;;1.92;1.83;;;;;;;;;;5119607;28;20203;-62
2023/03/18 10:57:19;;;;;;;2.10;1.90;;;;;;;;;;5119934;28;20209;-62
2023/03/18 10:59:46;;;;;;;2.05;1.83;;;;;;;;;;5118975;28;20238;-62
2023/03/18 11:02:18;;;;;;;2.15;2.00;;;;;;;;;;5118892;28;20272;-62
2023/03/18 11:04:48;;;;;;;2.03;1.90;;;;;;;;;;5119168;28;20285;-62
2023/03/18 11:07:18;;;;;;;2.30;2.10;;;;;;;;;;5118415;28;20203;-62
2023/03/18 11:09:47;;;;;;;2.05;1.85;;;;;;;;;;5119361;28;20498;-62
2023/03/18 11:12:17;;;;;;;3.05;2.00;;;;;;;;;;5119088;28;20313;-62
2023/03/18 11:14:48;;;;;;;1.80;1.70;;;;;;;;;;5119465;28;20271;-62
2023/03/18 11:17:20;;;;;;;2.03;1.70;;;;;;;;;;5117385;28;20242;-62
2023/03/18 11:19:48;;;;;;;2.33;2.13;;;;;;;;;;5118436;28;20209;-62
2023/03/18 11:22:21;;;;;;;2.20;2.00;;;;;;;;;;5119127;28;20203;-62
2023/03/18 11:25:01;;;;;;;1.60;1.50;;;;;;;;;;5118658;28;20203;-62
2023/03/18 11:27:30;;;;;;;2.00;1.80;;;;;;;;;;5118339;28;20299;-62
2023/03/18 11:29:59;;;;;;;3.33;2.20;;;;;;;;;;5118236;28;20203;-62
2023/03/18 11:32:28;;;;;;;4.00;2.47;;;;;;;;;;5118242;28;20227;-62
2023/03/18 11:34:57;;;;;;;5.57;3.33;;;;;;;;;;5118740;28;20305;-62
2023/03/18 11:37:28;;;;;;;7.90;3.63;;;;;;;;;;5118937;28;20210;-62
2023/03/18 11:40:07;;;;;;;7.53;4.57;;;;;;;;;;5119323;28;20558;-62
2023/03/18 11:42:35;;;;;;;9.18;4.82;;;;;;;;;;5117731;28;20289;-62
2023/03/18 11:45:04;;;;;;;13.43;5.90;;;;;;;;;;5118052;28;20238;-62
2023/03/18 11:47:33;;;;;;;11.30;5.75;;;;;;;;;;5118176;28;20719;-62
2023/03/18 11:50:03;;;;;;;12.05;6.43;;;;;;;;;;5118623;28;20203;-62
2023/03/18 11:52:35;;;;;;;14.43;8.02;;;;;;;;;;5117922;28;20258;-62
2023/03/18 11:55:21;;;;;;;13.98;7.18;;;;;;;;;;5118036;28;20199;-62
2023/03/18 11:58:02;;;;;;;11.27;6.53;;;;;;;;;;5102710;28;20242;-62
2023/03/18 12:00:33;;;;;;;14.23;7.13;;;;;;;;;;5118287;28;20202;-62
2023/03/18 12:03:23;;;;;;;14.45;7.35;;;;;;;;;;5117651;28;20495;-62
2023/03/18 12:05:59;;;;;;;13.93;6.70;;;;;;;;;;5118312;28;20230;-62
2023/03/18 12:08:31;;;;;;;10.60;6.35;;;;;;;;;;5117908;28;20286;-62
2023/03/18 12:11:05;;;;;;;13.48;6.70;;;;;;;;;;5117027;28;20234;-62
2023/03/18 12:13:39;;;;;;;15.00;6.45;;;;;;;;;;5118296;28;20610;-62
2023/03/18 12:16:13;;;;;;;12.38;6.53;;;;;;;;;;5117961;28;20202;-62
2023/03/18 12:18:50;;;;;;;12.43;6.60;;;;;;;;;;5117144;28;20239;-62
2023/03/18 12:21:31;;;;;;;12.32;6.55;;;;;;;;;;5116901;28;20210;-62
2023/03/18 12:24:04;;;;;;;12.68;6.50;;;;;;;;;;5116039;28;20202;-62
2023/03/18 12:26:35;;;;;;;13.30;6.10;;;;;;;;;;5117182;28;20203;-62
2023/03/18 12:29:19;;;;;;;10.68;6.00;;;;;;;;;;5117227;28;20324;-62
2023/03/18 12:31:52;;;;;;;9.00;5.20;;;;;;;;;;5116869;28;20227;-62
2023/03/18 12:34:26;;;;;;;10.98;5.95;;;;;;;;;;5117160;28;20329;-62
2023/03/18 12:37:02;;;;;;;8.48;5.57;;;;;;;;;;5116302;28;20643;-62
2023/03/18 12:39:51;;;;;;;8.43;5.65;;;;;;;;;;5116246;28;20233;-62
2023/03/18 12:42:18;;;;;;;9.52;5.80;;;;;;;;;;5116563;28;20207;-62
2023/03/18 12:44:57;;;;;;;8.38;5.05;;;;;;;;;;5116238;28;20249;-62
2023/03/18 12:47:27;;;;;;;9.50;5.30;;;;;;;;;;5116394;28;20210;-62
2023/03/18 12:49:56;;;;;;;8.07;4.90;;;;;;;;;;5116369;28;20203;-62
2023/03/18 12:52:28;;;;;;;8.35;4.80;;;;;;;;;;5116041;28;20237;-62
2023/03/18 12:55:00;;;;;;;8.40;4.93;;;;;;;;;;5115078;28;20301;-62
2023/03/18 12:57:32;;;;;;;6.15;4.43;;;;;;;;;;5115059;28;20203;-63
2023/03/18 13:00:05;;;;;;;7.90;4.72;;;;;;;;;;5115913;28;20195;-63
2023/03/18 13:02:44;;;;;;;7.18;4.22;;;;;;;;;;5115255;28;20191;-62
2023/03/18 13:05:20;;;;;;;5.82;3.30;;;;;;;;;;5115443;28;20261;-62
2023/03/18 13:07:50;;;;;;;4.50;3.33;;;;;;;;;;5115473;28;20654;-62
2023/03/18 13:10:22;;;;;;;7.53;3.78;;;;;;;;;;5115495;28;20211;-62
2023/03/18 13:12:50;;;;;;;7.05;3.80;;;;;;;;;;5115271;28;20234;-62
2023/03/18 13:15:23;;;;;;;5.57;3.50;;;;;;;;;;5115832;28;20206;-62
2023/03/18 13:17:52;;;;;;;7.45;3.67;;;;;;;;;;5115800;28;20699;-62
2023/03/18 13:20:22;;;;;;;5.28;3.20;;;;;;;;;;5116108;28;20238;-62
2023/03/18 13:23:08;;;;;;;4.97;3.80;;;;;;;;;;5116363;28;20287;-62
2023/03/18 13:25:41;;;;;;;5.38;2.97;;;;;;;;;;5115726;28;20203;-62
2023/03/18 13:28:22;;;;;;;5.95;3.67;;;;;;;;;;5115557;28;20206;-62
2023/03/18 13:30:59;;;;;;;5.65;3.40;;;;;;;;;;5115602;28;20671;-62
2023/03/18 13:33:33;;;;;;;6.25;4.07;;;;;;;;;;5116339;28;20207;-62
2023/03/18 13:36:09;;;;;;;5.78;3.78;;;;;;;;;;5115601;28;20285;-62
2023/03/18 13:38:45;;;;;;;5.47;3.97;;;;;;;;;;5115965;28;20306;-62
2023/03/18 13:41:31;;;;;;;5.75;3.92;;;;;;;;;;5116025;28;20229;-62
2023/03/18 13:43:59;;;;;;;6.97;3.95;;;;;;;;;;5097364;28;20203;-62
2023/03/18 13:46:30;;;;;;;6.82;3.60;;;;;;;;;;5116084;28;20205;-62
2023/03/18 13:48:58;;;;;;;6.50;3.88;;;;;;;;;;5115000;28;20297;-62
2023/03/18 13:51:44;;;;;;;5.93;3.60;;;;;;;;;;5115319;28;20241;-62
2023/03/18 13:54:17;;;;;;;5.10;3.55;;;;;;;;;;5115359;28;20259;-62
2023/03/18 13:56:48;;;;;;;5.93;3.83;;;;;;;;;;5115818;28;20307;-62
2023/03/18 13:59:31;;;;;;;6.78;4.22;;;;;;;;;;5115571;28;20579;-62
2023/03/18 14:02:21;;;;;;;5.93;3.85;;;;;;;;;;5114990;28;20199;-62
2023/03/18 14:04:49;;;;;;;5.28;3.50;;;;;;;;;;5114029;28;20202;-63
2023/03/18 14:07:18;;;;;;;6.70;3.40;;;;;;;;;;5115735;28;20203;-63
2023/03/18 14:09:53;;;;;;;5.80;3.22;;;;;;;;;;5115584;28;20210;-63
2023/03/18 14:12:22;;;;;;;5.97;3.42;;;;;;;;;;5115760;28;20226;-63
2023/03/18 14:14:59;;;;;;;5.82;3.63;;;;;;;;;;5115480;28;20214;-63
2023/03/18 14:17:37;;;;;;;6.55;3.33;;;;;;;;;;5113456;28;20229;-63
2023/03/18 14:20:09;;;;;;;6.97;3.55;;;;;;;;;;5113800;28;20215;-63
2023/03/18 14:22:37;;;;;;;6.20;3.47;;;;;;;;;;5114151;28;20209;-63
2023/03/18 14:25:26;;;;;;;4.45;3.35;;;;;;;;;;5114228;28;20210;-63
2023/03/18 14:27:54;;;;;;;5.78;2.97;;;;;;;;;;5106902;28;20207;-63
2023/03/18 14:30:42;;;;;;;5.57;3.50;;;;;;;;;;5114695;28;20312;-63
2023/03/18 14:33:25;;;;;;;7.40;3.65;;;;;;;;;;5106835;28;20303;-63
2023/03/18 14:36:00;;;;;;;7.90;3.00;;;;;;;;;;5114003;28;20272;-63
2023/03/18 14:38:30;;;;;;;6.40;3.17;;;;;;;;;;5114697;28;20304;-62
2023/03/18 14:40:59;;;;;;;6.65;3.03;;;;;;;;;;5113787;28;20286;-62
2023/03/18 14:43:28;;;;;;;4.38;2.85;;;;;;;;;;5114627;28;20760;-62
2023/03/18 14:45:57;;;;;;;4.43;2.80;;;;;;;;;;5114462;28;20754;-62
2023/03/18 14:48:28;;;;;;;3.63;2.67;;;;;;;;;;5114411;28;20289;-62
2023/03/18 14:50:58;;;;;;;4.00;2.80;;;;;;;;;;5114304;28;20218;-61
2023/03/18 14:53:28;;;;;;;5.90;3.00;;;;;;;;;;5115190;28;20233;-60
2023/03/18 14:55:58;;;;;;;5.65;2.90;;;;;;;;;;5114405;28;20235;-61
2023/03/18 14:58:26;;;;;;;5.75;2.97;;;;;;;;;;5114049;28;20290;-61
2023/03/18 15:00:57;;;;;;;3.13;2.83;;;;;;;;;;5114605;28;20714;-61